sensor_id;sensor_type;location;lat;lon;timestamp;pressure;altitude;pressure_sealevel;temperature;humidity
68508;BME280;55510;49.560;19.090;2024-02-15T00:01:19;96866.38;;;4.60;95.28
68508;BME280;55510;49.560;19.090;2024-02-15T00:04:20;96871.81;;;4.52;95.52
68508;BME280;55510;49.560;19.090;2024-02-15T00:07:20;96878.91;;;4.52;95.84
68508;BME280;55510;49.560;19.090;2024-02-15T00:10:22;96876.13;;;4.60;95.28
68508;BME280;55510;49.560;19.090;2024-02-15T00:13:25;96879.56;;;4.60;95.53
68508;BME280;55510;49.560;19.090;2024-02-15T00:16:25;96887.13;;;4.70;94.90
68508;BME280;55510;49.560;19.090;2024-02-15T00:19:28;96883.94;;;4.75;94.58
68508;BME280;55510;49.560;19.090;2024-02-15T00:22:30;96876.81;;;4.75;94.73
68508;BME280;55510;49.560;19.090;2024-02-15T00:25:30;96884.72;;;4.75;94.86
68508;BME280;55510;49.560;19.090;2024-02-15T00:28:31;96880.47;;;4.74;94.58
68508;BME280;55510;49.560;19.090;2024-02-15T00:31:34;96888.38;;;4.74;94.66
68508;BME280;55510;49.560;19.090;2024-02-15T00:34:36;96898.84;;;4.61;95.78
68508;BME280;55510;49.560;19.090;2024-02-15T00:37:40;96893.75;;;4.59;95.93
68508;BME280;55510;49.560;19.090;2024-02-15T00:40:41;96892.16;;;4.65;95.93
68508;BME280;55510;49.560;19.090;2024-02-15T00:43:42;96889.75;;;4.70;95.43
68508;BME280;55510;49.560;19.090;2024-02-15T00:46:42;96891.00;;;4.74;95.54
68508;BME280;55510;49.560;19.090;2024-02-15T00:49:43;96893.25;;;4.77;95.17
68508;BME280;55510;49.560;19.090;2024-02-15T00:52:45;96901.00;;;4.86;94.80
68508;BME280;55510;49.560;19.090;2024-02-15T00:55:46;96890.88;;;4.89;94.68
68508;BME280;55510;49.560;19.090;2024-02-15T00:58:47;96901.25;;;4.91;94.24
68508;BME280;55510;49.560;19.090;2024-02-15T01:01:48;96898.63;;;4.91;94.46
68508;BME280;55510;49.560;19.090;2024-02-15T01:04:48;96896.59;;;4.93;94.46
68508;BME280;55510;49.560;19.090;2024-02-15T01:07:49;96896.56;;;4.86;95.42
68508;BME280;55510;49.560;19.090;2024-02-15T01:10:50;96899.75;;;4.82;96.23
68508;BME280;55510;49.560;19.090;2024-02-15T01:13:53;96896.09;;;4.76;96.69
68508;BME280;55510;49.560;19.090;2024-02-15T01:16:53;96894.94;;;4.85;96.59
68508;BME280;55510;49.560;19.090;2024-02-15T01:19:54;96897.19;;;4.88;96.29
68508;BME280;55510;49.560;19.090;2024-02-15T01:22:55;96899.81;;;4.88;96.20
68508;BME280;55510;49.560;19.090;2024-02-15T01:25:56;96894.97;;;4.92;95.76
68508;BME280;55510;49.560;19.090;2024-02-15T01:28:58;96901.06;;;4.92;95.66
68508;BME280;55510;49.560;19.090;2024-02-15T01:31:58;96891.34;;;4.93;95.42
68508;BME280;55510;49.560;19.090;2024-02-15T01:34:59;96898.22;;;4.94;95.37
68508;BME280;55510;49.560;19.090;2024-02-15T01:38:00;96892.97;;;4.94;95.32
68508;BME280;55510;49.560;19.090;2024-02-15T01:41:00;96894.19;;;4.98;95.52
68508;BME280;55510;49.560;19.090;2024-02-15T01:44:02;96901.88;;;4.93;95.60
68508;BME280;55510;49.560;19.090;2024-02-15T01:47:03;96897.63;;;4.92;95.96
68508;BME280;55510;49.560;19.090;2024-02-15T01:50:05;96891.22;;;4.79;97.36
68508;BME280;55510;49.560;19.090;2024-02-15T01:53:07;96890.44;;;4.79;97.52
68508;BME280;55510;49.560;19.090;2024-02-15T01:56:13;96897.25;;;4.67;98.45
68508;BME280;55510;49.560;19.090;2024-02-15T01:59:15;96883.88;;;4.68;98.63
68508;BME280;55510;49.560;19.090;2024-02-15T02:02:18;96884.88;;;4.67;99.09
68508;BME280;55510;49.560;19.090;2024-02-15T02:05:20;96880.22;;;4.69;98.85
68508;BME280;55510;49.560;19.090;2024-02-15T02:08:21;96878.75;;;4.60;99.75
68508;BME280;55510;49.560;19.090;2024-02-15T02:11:23;96880.94;;;4.56;99.84
68508;BME280;55510;49.560;19.090;2024-02-15T02:14:24;96875.91;;;4.61;99.86
68508;BME280;55510;49.560;19.090;2024-02-15T02:17:25;96869.44;;;4.64;99.58
68508;BME280;55510;49.560;19.090;2024-02-15T02:20:26;96868.44;;;4.65;99.36
68508;BME280;55510;49.560;19.090;2024-02-15T02:23:28;96866.81;;;4.64;99.88
68508;BME280;55510;49.560;19.090;2024-02-15T02:26:30;96865.41;;;4.68;99.69
68508;BME280;55510;49.560;19.090;2024-02-15T02:29:31;96855.88;;;4.67;99.53
68508;BME280;55510;49.560;19.090;2024-02-15T02:32:33;96852.00;;;4.63;99.81
68508;BME280;55510;49.560;19.090;2024-02-15T02:35:34;96855.41;;;4.57;100.00
68508;BME280;55510;49.560;19.090;2024-02-15T02:38:35;96866.13;;;4.48;100.00
68508;BME280;55510;49.560;19.090;2024-02-15T02:41:38;96869.72;;;4.41;100.00
68508;BME280;55510;49.560;19.090;2024-02-15T02:44:38;96866.25;;;4.40;100.00
68508;BME280;55510;49.560;19.090;2024-02-15T02:47:39;96866.75;;;4.50;100.00
68508;BME280;55510;49.560;19.090;2024-02-15T02:50:40;96855.81;;;4.54;100.00
68508;BME280;55510;49.560;19.090;2024-02-15T02:53:40;96856.44;;;4.56;100.00
68508;BME280;55510;49.560;19.090;2024-02-15T02:56:41;96851.34;;;4.54;100.00
68508;BME280;55510;49.560;19.090;2024-02-15T02:59:43;96856.84;;;4.59;100.00
68508;BME280;55510;49.560;19.090;2024-02-15T03:02:46;96848.53;;;4.62;100.00
68508;BME280;55510;49.560;19.090;2024-02-15T03:05:46;96848.19;;;4.66;100.00
68508;BME280;55510;49.560;19.090;2024-02-15T03:08:47;96850.84;;;4.72;100.00
68508;BME280;55510;49.560;19.090;2024-02-15T03:11:48;96851.44;;;4.74;100.00
68508;BME280;55510;49.560;19.090;2024-02-15T03:14:50;96857.97;;;4.78;100.00
68508;BME280;55510;49.560;19.090;2024-02-15T03:17:51;96857.56;;;4.82;100.00
68508;BME280;55510;49.560;19.090;2024-02-15T03:20:52;96852.50;;;4.80;100.00
68508;BME280;55510;49.560;19.090;2024-02-15T03:23:52;96854.72;;;4.76;100.00
68508;BME280;55510;49.560;19.090;2024-02-15T03:26:53;96857.72;;;4.67;100.00
68508;BME280;55510;49.560;19.090;2024-02-15T03:29:55;96860.09;;;4.61;100.00
68508;BME280;55510;49.560;19.090;2024-02-15T03:32:58;96868.44;;;4.65;100.00
68508;BME280;55510;49.560;19.090;2024-02-15T03:35:59;96860.97;;;4.69;100.00
68508;BME280;55510;49.560;19.090;2024-02-15T03:39:02;96856.09;;;4.72;100.00
68508;BME280;55510;49.560;19.090;2024-02-15T03:42:03;96854.72;;;4.76;100.00
68508;BME280;55510;49.560;19.090;2024-02-15T03:45:04;96864.25;;;4.77;100.00
68508;BME280;55510;49.560;19.090;2024-02-15T03:48:08;96861.03;;;4.82;100.00
68508;BME280;55510;49.560;19.090;2024-02-15T03:51:09;96857.19;;;4.85;100.00
68508;BME280;55510;49.560;19.090;2024-02-15T03:54:10;96858.19;;;4.84;100.00
68508;BME280;55510;49.560;19.090;2024-02-15T03:57:11;96846.19;;;4.74;100.00
68508;BME280;55510;49.560;19.090;2024-02-15T04:00:13;96851.28;;;4.76;100.00
68508;BME280;55510;49.560;19.090;2024-02-15T04:03:16;96843.38;;;4.76;100.00
68508;BME280;55510;49.560;19.090;2024-02-15T04:06:17;96846.00;;;4.76;100.00
68508;BME280;55510;49.560;19.090;2024-02-15T04:09:18;96846.38;;;4.73;100.00
68508;BME280;55510;49.560;19.090;2024-02-15T04:12:20;96837.66;;;4.72;100.00
68508;BME280;55510;49.560;19.090;2024-02-15T04:15:22;96833.63;;;4.76;100.00
68508;BME280;55510;49.560;19.090;2024-02-15T04:18:22;96833.81;;;4.75;100.00
68508;BME280;55510;49.560;19.090;2024-02-15T04:21:23;96837.03;;;4.70;100.00
68508;BME280;55510;49.560;19.090;2024-02-15T04:24:23;96835.63;;;4.68;100.00
68508;BME280;55510;49.560;19.090;2024-02-15T04:27:26;96840.28;;;4.66;100.00
68508;BME280;55510;49.560;19.090;2024-02-15T04:30:26;96845.97;;;4.69;100.00
68508;BME280;55510;49.560;19.090;2024-02-15T04:33:27;96835.63;;;4.74;100.00
68508;BME280;55510;49.560;19.090;2024-02-15T04:36:27;96835.00;;;4.72;100.00
68508;BME280;55510;49.560;19.090;2024-02-15T04:39:34;96836.88;;;4.78;100.00
68508;BME280;55510;49.560;19.090;2024-02-15T04:42:36;96843.38;;;4.76;100.00
68508;BME280;55510;49.560;19.090;2024-02-15T04:45:40;96847.00;;;4.75;100.00
68508;BME280;55510;49.560;19.090;2024-02-15T04:48:41;96849.66;;;4.75;100.00
68508;BME280;55510;49.560;19.090;2024-02-15T04:51:43;96854.72;;;4.76;100.00
68508;BME280;55510;49.560;19.090;2024-02-15T04:54:44;96853.69;;;4.77;100.00
68508;BME280;55510;49.560;19.090;2024-02-15T04:57:45;96855.53;;;4.77;100.00
68508;BME280;55510;49.560;19.090;2024-02-15T05:00:49;96859.97;;;4.76;100.00
68508;BME280;55510;49.560;19.090;2024-02-15T05:03:54;96862.00;;;4.74;100.00
68508;BME280;55510;49.560;19.090;2024-02-15T05:06:55;96859.97;;;4.70;100.00
68508;BME280;55510;49.560;19.090;2024-02-15T05:09:56;96853.88;;;4.69;100.00
68508;BME280;55510;49.560;19.090;2024-02-15T05:12:57;96865.25;;;4.70;100.00
68508;BME280;55510;49.560;19.090;2024-02-15T05:15:58;96858.13;;;4.70;100.00
68508;BME280;55510;49.560;19.090;2024-02-15T05:18:58;96851.22;;;4.69;100.00
68508;BME280;55510;49.560;19.090;2024-02-15T05:21:59;96855.25;;;4.65;100.00
68508;BME280;55510;49.560;19.090;2024-02-15T05:25:01;96859.72;;;4.64;100.00
68508;BME280;55510;49.560;19.090;2024-02-15T05:28:06;96854.66;;;4.63;100.00
68508;BME280;55510;49.560;19.090;2024-02-15T05:31:19;96867.38;;;4.59;100.00
68508;BME280;55510;49.560;19.090;2024-02-15T05:34:25;96866.03;;;4.70;100.00
68508;BME280;55510;49.560;19.090;2024-02-15T05:37:26;96859.56;;;4.73;100.00
68508;BME280;55510;49.560;19.090;2024-02-15T05:40:26;96865.41;;;4.68;100.00
68508;BME280;55510;49.560;19.090;2024-02-15T05:43:27;96874.94;;;4.69;100.00
68508;BME280;55510;49.560;19.090;2024-02-15T05:46:28;96871.13;;;4.72;100.00
68508;BME280;55510;49.560;19.090;2024-02-15T05:49:28;96871.69;;;4.67;100.00
68508;BME280;55510;49.560;19.090;2024-02-15T05:55:28;96879.41;;;4.40;100.00
68508;BME280;55510;49.560;19.090;2024-02-15T05:58:30;96886.13;;;4.43;100.00
68508;BME280;55510;49.560;19.090;2024-02-15T06:01:31;96885.38;;;4.49;100.00
68508;BME280;55510;49.560;19.090;2024-02-15T06:04:32;96891.09;;;4.53;100.00
68508;BME280;55510;49.560;19.090;2024-02-15T06:07:32;96898.78;;;4.54;100.00
68508;BME280;55510;49.560;19.090;2024-02-15T06:10:34;96901.25;;;4.56;100.00
68508;BME280;55510;49.560;19.090;2024-02-15T06:13:35;96905.75;;;4.62;100.00
68508;BME280;55510;49.560;19.090;2024-02-15T06:16:42;96909.00;;;4.64;100.00
68508;BME280;55510;49.560;19.090;2024-02-15T06:19:43;96905.97;;;4.67;100.00
68508;BME280;55510;49.560;19.090;2024-02-15T06:22:44;96903.34;;;4.67;100.00
68508;BME280;55510;49.560;19.090;2024-02-15T06:25:46;96905.03;;;4.75;100.00
68508;BME280;55510;49.560;19.090;2024-02-15T06:28:48;96908.28;;;4.77;100.00
68508;BME280;55510;49.560;19.090;2024-02-15T06:32:07;96909.94;;;4.85;100.00
68508;BME280;55510;49.560;19.090;2024-02-15T06:35:26;96917.25;;;4.89;100.00
68508;BME280;55510;49.560;19.090;2024-02-15T06:38:45;96920.72;;;4.90;100.00
68508;BME280;55510;49.560;19.090;2024-02-15T06:42:04;96924.22;;;4.97;100.00
68508;BME280;55510;49.560;19.090;2024-02-15T06:45:05;96924.25;;;5.04;100.00
68508;BME280;55510;49.560;19.090;2024-02-15T06:48:08;96927.31;;;5.07;100.00
68508;BME280;55510;49.560;19.090;2024-02-15T06:51:12;96939.72;;;5.14;100.00
68508;BME280;55510;49.560;19.090;2024-02-15T06:54:14;96933.88;;;5.18;100.00
68508;BME280;55510;49.560;19.090;2024-02-15T06:57:15;96937.75;;;5.22;100.00
68508;BME280;55510;49.560;19.090;2024-02-15T07:00:16;96932.13;;;5.32;100.00
68508;BME280;55510;49.560;19.090;2024-02-15T07:03:18;96929.31;;;5.41;100.00
68508;BME280;55510;49.560;19.090;2024-02-15T07:06:19;96934.59;;;5.47;100.00
68508;BME280;55510;49.560;19.090;2024-02-15T07:09:21;96936.25;;;5.55;100.00
68508;BME280;55510;49.560;19.090;2024-02-15T07:12:24;96935.47;;;5.61;100.00
68508;BME280;55510;49.560;19.090;2024-02-15T07:15:25;96933.66;;;5.69;100.00
68508;BME280;55510;49.560;19.090;2024-02-15T07:18:26;96936.94;;;5.77;100.00
68508;BME280;55510;49.560;19.090;2024-02-15T07:21:27;96934.72;;;5.88;100.00
68508;BME280;55510;49.560;19.090;2024-02-15T07:24:28;96937.56;;;5.93;99.94
68508;BME280;55510;49.560;19.090;2024-02-15T07:27:29;96933.97;;;6.01;99.63
68508;BME280;55510;49.560;19.090;2024-02-15T07:30:29;96939.66;;;6.11;98.67
68508;BME280;55510;49.560;19.090;2024-02-15T07:33:31;96936.84;;;6.19;98.53
68508;BME280;55510;49.560;19.090;2024-02-15T07:36:32;96942.97;;;6.27;98.14
68508;BME280;55510;49.560;19.090;2024-02-15T07:39:33;96936.06;;;6.39;98.04
68508;BME280;55510;49.560;19.090;2024-02-15T07:42:33;96931.56;;;6.46;96.36
68508;BME280;55510;49.560;19.090;2024-02-15T07:45:35;96930.75;;;6.52;95.75
68508;BME280;55510;49.560;19.090;2024-02-15T07:48:37;96925.06;;;6.69;96.76
68508;BME280;55510;49.560;19.090;2024-02-15T07:51:40;96934.19;;;6.87;96.11
68508;BME280;55510;49.560;19.090;2024-02-15T07:54:40;96931.09;;;7.03;96.18
68508;BME280;55510;49.560;19.090;2024-02-15T07:57:41;96931.69;;;7.12;95.24
68508;BME280;55510;49.560;19.090;2024-02-15T08:00:42;96927.00;;;7.14;94.22
68508;BME280;55510;49.560;19.090;2024-02-15T08:03:42;96935.13;;;7.26;93.69
68508;BME280;55510;49.560;19.090;2024-02-15T08:06:45;96935.09;;;7.33;92.70
68508;BME280;55510;49.560;19.090;2024-02-15T08:09:47;96933.25;;;7.33;92.31
68508;BME280;55510;49.560;19.090;2024-02-15T08:12:51;96931.41;;;7.40;91.30
68508;BME280;55510;49.560;19.090;2024-02-15T08:15:53;96936.28;;;7.44;91.33
68508;BME280;55510;49.560;19.090;2024-02-15T08:18:56;96935.44;;;7.50;92.05
68508;BME280;55510;49.560;19.090;2024-02-15T08:21:57;96931.31;;;7.61;91.96
68508;BME280;55510;49.560;19.090;2024-02-15T08:25:12;96936.16;;;7.71;90.87
68508;BME280;55510;49.560;19.090;2024-02-15T08:28:13;96939.16;;;7.81;90.48
68508;BME280;55510;49.560;19.090;2024-02-15T08:31:16;96937.28;;;7.88;89.54
68508;BME280;55510;49.560;19.090;2024-02-15T08:34:17;96941.09;;;7.99;88.89
68508;BME280;55510;49.560;19.090;2024-02-15T08:37:19;96944.94;;;8.10;88.36
68508;BME280;55510;49.560;19.090;2024-02-15T08:40:19;96939.81;;;8.08;87.75
68508;BME280;55510;49.560;19.090;2024-02-15T08:43:25;96940.81;;;8.14;87.12
68508;BME280;55510;49.560;19.090;2024-02-15T08:46:25;96939.53;;;8.23;87.62
68508;BME280;55510;49.560;19.090;2024-02-15T08:49:28;96941.47;;;8.35;87.25
68508;BME280;55510;49.560;19.090;2024-02-15T08:52:32;96945.09;;;8.47;86.35
68508;BME280;55510;49.560;19.090;2024-02-15T08:55:33;96940.66;;;8.41;85.59
68508;BME280;55510;49.560;19.090;2024-02-15T08:58:36;96947.94;;;8.52;85.04
68508;BME280;55510;49.560;19.090;2024-02-15T09:01:39;96948.53;;;8.54;83.90
68508;BME280;55510;49.560;19.090;2024-02-15T09:04:40;96945.75;;;8.68;84.20
68508;BME280;55510;49.560;19.090;2024-02-15T09:07:41;96939.53;;;8.81;84.10
68508;BME280;55510;49.560;19.090;2024-02-15T09:10:42;96943.03;;;9.00;83.16
68508;BME280;55510;49.560;19.090;2024-02-15T09:13:43;96943.91;;;9.12;82.76
68508;BME280;55510;49.560;19.090;2024-02-15T09:16:44;96947.03;;;9.28;82.01
68508;BME280;55510;49.560;19.090;2024-02-15T09:19:47;96947.84;;;9.28;80.11
68508;BME280;55510;49.560;19.090;2024-02-15T09:22:51;96949.25;;;9.31;80.89
68508;BME280;55510;49.560;19.090;2024-02-15T09:25:52;96949.53;;;9.41;80.76
68508;BME280;55510;49.560;19.090;2024-02-15T09:28:53;96950.25;;;9.49;80.14
68508;BME280;55510;49.560;19.090;2024-02-15T09:31:54;96948.50;;;9.42;79.02
68508;BME280;55510;49.560;19.090;2024-02-15T09:34:54;96943.16;;;9.61;79.54
68508;BME280;55510;49.560;19.090;2024-02-15T09:37:55;96940.13;;;9.76;78.54
68508;BME280;55510;49.560;19.090;2024-02-15T09:40:56;96949.94;;;9.76;78.59
68508;BME280;55510;49.560;19.090;2024-02-15T09:43:57;96948.00;;;9.83;78.18
68508;BME280;55510;49.560;19.090;2024-02-15T09:47:05;96956.44;;;9.80;78.09
68508;BME280;55510;49.560;19.090;2024-02-15T09:50:16;96947.47;;;9.93;77.79
68508;BME280;55510;49.560;19.090;2024-02-15T09:53:21;96950.28;;;10.10;77.08
68508;BME280;55510;49.560;19.090;2024-02-15T09:56:32;96952.81;;;10.05;76.85
68508;BME280;55510;49.560;19.090;2024-02-15T09:59:34;96944.44;;;10.20;77.08
68508;BME280;55510;49.560;19.090;2024-02-15T10:02:38;96940.00;;;10.44;77.38
68508;BME280;55510;49.560;19.090;2024-02-15T10:05:40;96948.59;;;10.15;77.02
68508;BME280;55510;49.560;19.090;2024-02-15T10:08:41;96945.50;;;10.30;75.91
68508;BME280;55510;49.560;19.090;2024-02-15T10:11:53;96944.06;;;10.16;75.20
68508;BME280;55510;49.560;19.090;2024-02-15T10:14:55;96945.25;;;10.20;75.53
68508;BME280;55510;49.560;19.090;2024-02-15T10:17:57;96947.34;;;10.30;75.21
68508;BME280;55510;49.560;19.090;2024-02-15T10:20:59;96940.53;;;10.34;75.19
68508;BME280;55510;49.560;19.090;2024-02-15T10:24:04;96938.56;;;10.29;74.54
68508;BME280;55510;49.560;19.090;2024-02-15T10:27:06;96943.44;;;10.33;75.20
68508;BME280;55510;49.560;19.090;2024-02-15T10:30:17;96930.25;;;10.38;75.01
68508;BME280;55510;49.560;19.090;2024-02-15T10:33:19;96928.25;;;10.33;74.20
68508;BME280;55510;49.560;19.090;2024-02-15T10:36:23;96930.34;;;10.62;74.43
68508;BME280;55510;49.560;19.090;2024-02-15T10:39:24;96922.94;;;10.64;73.79
68508;BME280;55510;49.560;19.090;2024-02-15T10:42:26;96922.94;;;10.64;73.79
68508;BME280;55510;49.560;19.090;2024-02-15T10:45:28;61888.91;;;-147.19;100.00
68508;BME280;55510;49.560;19.090;2024-02-15T10:48:31;61888.91;;;-147.19;100.00
68508;BME280;55510;49.560;19.090;2024-02-15T10:51:32;61888.91;;;-147.19;100.00
68508;BME280;55510;49.560;19.090;2024-02-15T10:54:41;61888.91;;;-147.19;100.00
68508;BME280;55510;49.560;19.090;2024-02-15T10:57:46;61888.91;;;-147.19;100.00
68508;BME280;55510;49.560;19.090;2024-02-15T11:00:49;61888.91;;;-147.19;100.00
68508;BME280;55510;49.560;19.090;2024-02-15T11:03:52;61888.91;;;-147.19;100.00
68508;BME280;55510;49.560;19.090;2024-02-15T11:06:57;61888.91;;;-147.19;100.00
68508;BME280;55510;49.560;19.090;2024-02-15T11:09:59;61888.91;;;-147.19;100.00
68508;BME280;55510;49.560;19.090;2024-02-15T11:13:01;61888.91;;;-147.19;100.00
68508;BME280;55510;49.560;19.090;2024-02-15T11:16:03;61888.91;;;-147.19;100.00
68508;BME280;55510;49.560;19.090;2024-02-15T11:19:03;61888.91;;;-147.19;100.00
68508;BME280;55510;49.560;19.090;2024-02-15T11:22:14;61888.91;;;-147.19;100.00
68508;BME280;55510;49.560;19.090;2024-02-15T11:25:31;61888.91;;;-147.19;100.00
68508;BME280;55510;49.560;19.090;2024-02-15T11:28:37;61888.91;;;-147.19;100.00
68508;BME280;55510;49.560;19.090;2024-02-15T11:31:55;61888.91;;;-147.19;100.00
68508;BME280;55510;49.560;19.090;2024-02-15T11:35:06;61888.91;;;-147.19;100.00
68508;BME280;55510;49.560;19.090;2024-02-15T11:38:27;61888.91;;;-147.19;100.00
68508;BME280;55510;49.560;19.090;2024-02-15T11:41:28;61888.91;;;-147.19;100.00
68508;BME280;55510;49.560;19.090;2024-02-15T11:44:29;61888.91;;;-147.19;100.00
68508;BME280;55510;49.560;19.090;2024-02-15T11:47:32;61888.91;;;-147.19;100.00
68508;BME280;55510;49.560;19.090;2024-02-15T11:50:38;61888.91;;;-147.19;100.00
68508;BME280;55510;49.560;19.090;2024-02-15T11:53:42;61888.91;;;-147.19;100.00
68508;BME280;55510;49.560;19.090;2024-02-15T11:59:44;61888.91;;;-147.19;100.00
68508;BME280;55510;49.560;19.090;2024-02-15T12:02:54;61888.91;;;-147.19;100.00
68508;BME280;55510;49.560;19.090;2024-02-15T12:06:17;61888.91;;;-147.19;100.00
68508;BME280;55510;49.560;19.090;2024-02-15T12:09:36;61888.91;;;-147.19;100.00
68508;BME280;55510;49.560;19.090;2024-02-15T12:12:56;61888.91;;;-147.19;100.00
68508;BME280;55510;49.560;19.090;2024-02-15T12:16:15;61888.91;;;-147.19;100.00
68508;BME280;55510;49.560;19.090;2024-02-15T12:19:35;61888.91;;;-147.19;100.00
68508;BME280;55510;49.560;19.090;2024-02-15T12:22:48;61888.91;;;-147.19;100.00
68508;BME280;55510;49.560;19.090;2024-02-15T12:25:53;61888.91;;;-147.19;100.00
68508;BME280;55510;49.560;19.090;2024-02-15T12:28:53;61888.91;;;-147.19;100.00
68508;BME280;55510;49.560;19.090;2024-02-15T12:31:59;61888.91;;;-147.19;100.00
68508;BME280;55510;49.560;19.090;2024-02-15T12:35:12;61888.91;;;-147.19;100.00
68508;BME280;55510;49.560;19.090;2024-02-15T12:38:17;61888.91;;;-147.19;100.00
68508;BME280;55510;49.560;19.090;2024-02-15T12:41:21;61888.91;;;-147.19;100.00
68508;BME280;55510;49.560;19.090;2024-02-15T12:44:22;61888.91;;;-147.19;100.00
68508;BME280;55510;49.560;19.090;2024-02-15T12:47:22;61888.91;;;-147.19;100.00
68508;BME280;55510;49.560;19.090;2024-02-15T12:50:29;61888.91;;;-147.19;100.00
68508;BME280;55510;49.560;19.090;2024-02-15T12:53:30;61888.91;;;-147.19;100.00
68508;BME280;55510;49.560;19.090;2024-02-15T12:56:31;61888.91;;;-147.19;100.00
68508;BME280;55510;49.560;19.090;2024-02-15T12:59:31;61888.91;;;-147.19;100.00
68508;BME280;55510;49.560;19.090;2024-02-15T13:02:32;61888.91;;;-147.19;100.00
68508;BME280;55510;49.560;19.090;2024-02-15T13:05:32;61888.91;;;-147.19;100.00
68508;BME280;55510;49.560;19.090;2024-02-15T13:08:33;61888.91;;;-147.19;100.00
68508;BME280;55510;49.560;19.090;2024-02-15T13:11:35;61888.91;;;-147.19;100.00
68508;BME280;55510;49.560;19.090;2024-02-15T13:14:36;61888.91;;;-147.19;100.00
68508;BME280;55510;49.560;19.090;2024-02-15T13:17:37;61888.91;;;-147.19;100.00
68508;BME280;55510;49.560;19.090;2024-02-15T13:20:38;61888.91;;;-147.19;100.00
68508;BME280;55510;49.560;19.090;2024-02-15T13:23:39;61888.91;;;-147.19;100.00
68508;BME280;55510;49.560;19.090;2024-02-15T13:26:39;61888.91;;;-147.19;100.00
68508;BME280;55510;49.560;19.090;2024-02-15T13:29:40;61888.91;;;-147.19;100.00
68508;BME280;55510;49.560;19.090;2024-02-15T13:32:42;61888.91;;;-147.19;100.00
68508;BME280;55510;49.560;19.090;2024-02-15T13:35:42;61888.91;;;-147.19;100.00
68508;BME280;55510;49.560;19.090;2024-02-15T13:38:43;61888.91;;;-147.19;100.00
68508;BME280;55510;49.560;19.090;2024-02-15T13:41:43;61888.91;;;-147.19;100.00
68508;BME280;55510;49.560;19.090;2024-02-15T13:44:45;61888.91;;;-147.19;100.00
68508;BME280;55510;49.560;19.090;2024-02-15T13:47:46;61888.91;;;-147.19;100.00
68508;BME280;55510;49.560;19.090;2024-02-15T13:50:51;61888.91;;;-147.19;100.00
68508;BME280;55510;49.560;19.090;2024-02-15T13:53:53;61888.91;;;-147.19;100.00
68508;BME280;55510;49.560;19.090;2024-02-15T13:56:55;61888.91;;;-147.19;100.00
68508;BME280;55510;49.560;19.090;2024-02-15T13:59:56;61888.91;;;-147.19;100.00
68508;BME280;55510;49.560;19.090;2024-02-15T14:02:59;61888.91;;;-147.19;100.00
68508;BME280;55510;49.560;19.090;2024-02-15T14:06:01;61888.91;;;-147.19;100.00
68508;BME280;55510;49.560;19.090;2024-02-15T14:09:01;61888.91;;;-147.19;100.00
68508;BME280;55510;49.560;19.090;2024-02-15T14:12:02;61888.91;;;-147.19;100.00
68508;BME280;55510;49.560;19.090;2024-02-15T14:15:06;61888.91;;;-147.19;100.00
68508;BME280;55510;49.560;19.090;2024-02-15T14:18:08;61888.91;;;-147.19;100.00
68508;BME280;55510;49.560;19.090;2024-02-15T14:21:18;61888.91;;;-147.19;100.00
68508;BME280;55510;49.560;19.090;2024-02-15T14:24:19;61888.91;;;-147.19;100.00
68508;BME280;55510;49.560;19.090;2024-02-15T14:27:23;61888.91;;;-147.19;100.00
68508;BME280;55510;49.560;19.090;2024-02-15T14:30:27;61888.91;;;-147.19;100.00
68508;BME280;55510;49.560;19.090;2024-02-15T14:33:47;61888.91;;;-147.19;100.00
68508;BME280;55510;49.560;19.090;2024-02-15T14:36:50;61888.91;;;-147.19;100.00
68508;BME280;55510;49.560;19.090;2024-02-15T14:39:51;61888.91;;;-147.19;100.00
68508;BME280;55510;49.560;19.090;2024-02-15T14:42:51;61888.91;;;-147.19;100.00
68508;BME280;55510;49.560;19.090;2024-02-15T14:45:52;61888.91;;;-147.19;100.00
68508;BME280;55510;49.560;19.090;2024-02-15T14:49:02;61888.91;;;-147.19;100.00
68508;BME280;55510;49.560;19.090;2024-02-15T14:52:03;61888.91;;;-147.19;100.00
68508;BME280;55510;49.560;19.090;2024-02-15T14:55:04;61888.91;;;-147.19;100.00
68508;BME280;55510;49.560;19.090;2024-02-15T14:58:06;61888.91;;;-147.19;100.00
68508;BME280;55510;49.560;19.090;2024-02-15T15:01:08;61888.91;;;-147.19;100.00
68508;BME280;55510;49.560;19.090;2024-02-15T15:04:08;61888.91;;;-147.19;100.00
68508;BME280;55510;49.560;19.090;2024-02-15T15:07:10;61888.91;;;-147.19;100.00
68508;BME280;55510;49.560;19.090;2024-02-15T15:10:30;61888.91;;;-147.19;100.00
68508;BME280;55510;49.560;19.090;2024-02-15T15:13:49;61888.91;;;-147.19;100.00
68508;BME280;55510;49.560;19.090;2024-02-15T15:16:50;61888.91;;;-147.19;100.00
68508;BME280;55510;49.560;19.090;2024-02-15T15:19:50;61888.91;;;-147.19;100.00
68508;BME280;55510;49.560;19.090;2024-02-15T15:22:51;61888.91;;;-147.19;100.00
68508;BME280;55510;49.560;19.090;2024-02-15T15:25:52;61888.91;;;-147.19;100.00
68508;BME280;55510;49.560;19.090;2024-02-15T15:28:53;61888.91;;;-147.19;100.00
68508;BME280;55510;49.560;19.090;2024-02-15T15:31:55;61888.91;;;-147.19;100.00
68508;BME280;55510;49.560;19.090;2024-02-15T15:34:56;61888.91;;;-147.19;100.00
68508;BME280;55510;49.560;19.090;2024-02-15T15:37:57;61888.91;;;-147.19;100.00
68508;BME280;55510;49.560;19.090;2024-02-15T15:40:58;61888.91;;;-147.19;100.00
68508;BME280;55510;49.560;19.090;2024-02-15T15:43:59;61888.91;;;-147.19;100.00
68508;BME280;55510;49.560;19.090;2024-02-15T15:47:00;61888.91;;;-147.19;100.00
68508;BME280;55510;49.560;19.090;2024-02-15T15:50:00;61888.91;;;-147.19;100.00
68508;BME280;55510;49.560;19.090;2024-02-15T15:53:02;61888.91;;;-147.19;100.00